Time;durP1;ratioP1;P1;durP2;ratioP2;P2;SDS_P1;SDS_P2;PMS_P1;PMS_P2;Temp;Humidity;BMP_temperature;BMP_pressure;BME280_temperature;BME280_humidity;BME280_pressure;Samples;Min_cycle;Max_cycle;Signal;HPM_P1;HPM_P2
2021/09/17 00:00:27;;;;;;;6.35;4.25;;;;;;;;;;5035829;28;20025;-88
2021/09/17 00:02:52;;;;;;;11.45;4.57;;;;;;;;;;5035683;28;20025;-88
2021/09/17 00:05:18;;;;;;;9.15;4.72;;;;;;;;;;5034904;28;20385;-88
2021/09/17 00:07:43;;;;;;;6.40;4.45;;;;;;;;;;5034495;28;20017;-89
2021/09/17 00:10:08;;;;;;;8.18;4.25;;;;;;;;;;5035608;28;20060;-88
2021/09/17 00:12:34;;;;;;;7.75;4.43;;;;;;;;;;5034794;28;20495;-89
2021/09/17 00:14:59;;;;;;;7.45;4.35;;;;;;;;;;5034427;28;20109;-88
2021/09/17 00:17:24;;;;;;;6.82;4.10;;;;;;;;;;5034928;28;20017;-88
2021/09/17 00:19:49;;;;;;;9.13;4.28;;;;;;;;;;5034349;28;20473;-87
2021/09/17 00:22:15;;;;;;;7.03;4.03;;;;;;;;;;5034524;28;20064;-88
2021/09/17 00:24:40;;;;;;;7.40;4.25;;;;;;;;;;5035484;28;20485;-88
2021/09/17 00:27:06;;;;;;;7.68;4.07;;;;;;;;;;5035312;28;20025;-88
2021/09/17 00:29:31;;;;;;;6.63;4.03;;;;;;;;;;5034935;28;20689;-89
2021/09/17 00:31:56;;;;;;;6.13;3.88;;;;;;;;;;5034255;28;20454;-88
2021/09/17 00:34:21;;;;;;;8.48;4.10;;;;;;;;;;5034275;28;20017;-88
2021/09/17 00:36:47;;;;;;;10.43;4.25;;;;;;;;;;5035458;28;20029;-88
2021/09/17 00:39:15;;;;;;;9.00;3.80;;;;;;;;;;5033712;28;20021;-88
2021/09/17 00:41:40;;;;;;;6.32;4.13;;;;;;;;;;5034051;28;20030;-88
2021/09/17 00:44:06;;;;;;;7.10;4.40;;;;;;;;;;5033972;28;20025;-88
2021/09/17 00:46:31;;;;;;;11.65;3.97;;;;;;;;;;5035334;28;20018;-88
2021/09/17 00:48:57;;;;;;;6.10;4.22;;;;;;;;;;5034546;28;20025;-87
2021/09/17 00:51:22;;;;;;;11.63;3.97;;;;;;;;;;5033539;28;20026;-88
2021/09/17 00:53:47;;;;;;;8.07;3.70;;;;;;;;;;5033747;28;20018;-88
2021/09/17 00:56:13;;;;;;;8.95;4.10;;;;;;;;;;5036749;28;20021;-88
2021/09/17 00:58:38;;;;;;;11.43;4.40;;;;;;;;;;5033711;28;20662;-88
2021/09/17 01:01:03;;;;;;;7.90;3.88;;;;;;;;;;5034844;28;20030;-88
2021/09/17 01:03:29;;;;;;;7.15;3.78;;;;;;;;;;5033691;28;20480;-88
2021/09/17 01:05:54;;;;;;;7.55;3.92;;;;;;;;;;5037778;28;20039;-88
2021/09/17 01:08:20;;;;;;;7.15;3.70;;;;;;;;;;5042866;28;20079;-89
2021/09/17 01:10:45;;;;;;;9.30;4.13;;;;;;;;;;5033213;28;20021;-88
2021/09/17 01:13:11;;;;;;;8.57;4.22;;;;;;;;;;5033405;28;20017;-88
2021/09/17 01:15:36;;;;;;;9.48;4.28;;;;;;;;;;5033296;28;20017;-87
2021/09/17 01:18:02;;;;;;;7.78;4.32;;;;;;;;;;5033200;28;20032;-88
2021/09/17 01:20:27;;;;;;;5.50;4.05;;;;;;;;;;5033509;28;20167;-88
2021/09/17 01:22:52;;;;;;;5.93;4.13;;;;;;;;;;5033036;28;20018;-88
2021/09/17 01:25:19;;;;;;;8.10;4.65;;;;;;;;;;5033462;28;20527;-88
2021/09/17 01:27:45;;;;;;;7.13;4.30;;;;;;;;;;5034330;28;20092;-88
2021/09/17 01:30:11;;;;;;;8.32;4.57;;;;;;;;;;5040737;28;20027;-88
2021/09/17 01:32:41;;;;;;;6.30;4.18;;;;;;;;;;5037520;28;20100;-89
2021/09/17 01:35:07;;;;;;;7.47;4.65;;;;;;;;;;5019314;28;20060;-88
2021/09/17 01:37:32;;;;;;;6.35;4.28;;;;;;;;;;5032652;28;20014;-88
2021/09/17 01:39:57;;;;;;;6.57;4.18;;;;;;;;;;5032863;28;20079;-88
2021/09/17 01:42:22;;;;;;;5.20;3.75;;;;;;;;;;5034288;28;20025;-88
2021/09/17 01:44:48;;;;;;;8.82;3.70;;;;;;;;;;5046691;28;20442;-88
2021/09/17 01:47:13;;;;;;;9.88;3.88;;;;;;;;;;5032768;28;20021;-88
2021/09/17 01:49:38;;;;;;;6.35;4.30;;;;;;;;;;5079903;28;20048;-88
2021/09/17 01:52:04;;;;;;;11.38;4.25;;;;;;;;;;5032790;28;20021;-89
2021/09/17 01:54:29;;;;;;;15.73;4.88;;;;;;;;;;5032835;28;20029;-89
2021/09/17 01:56:54;;;;;;;8.63;4.25;;;;;;;;;;5032640;28;20472;-88
2021/09/17 01:59:20;;;;;;;12.05;4.53;;;;;;;;;;5042903;28;20028;-88
2021/09/17 02:01:46;;;;;;;10.15;4.07;;;;;;;;;;5036764;28;20045;-88
2021/09/17 02:04:11;;;;;;;8.27;4.30;;;;;;;;;;5031805;28;20411;-88
2021/09/17 02:06:36;;;;;;;9.73;4.25;;;;;;;;;;5044696;28;20079;-88
2021/09/17 02:09:02;;;;;;;6.68;4.53;;;;;;;;;;5033658;28;20116;-88
2021/09/17 02:11:28;;;;;;;9.73;4.50;;;;;;;;;;5032554;28;20025;-88
2021/09/17 02:13:53;;;;;;;10.40;4.82;;;;;;;;;;5032262;28;20029;-88
2021/09/17 02:16:18;;;;;;;9.80;5.00;;;;;;;;;;5031964;28;20427;-89
2021/09/17 02:18:44;;;;;;;10.60;4.20;;;;;;;;;;5031273;28;20044;-87
2021/09/17 02:21:09;;;;;;;7.43;4.78;;;;;;;;;;5031904;28;20025;-88
2021/09/17 02:23:34;;;;;;;8.48;4.82;;;;;;;;;;5030213;28;20032;-88
2021/09/17 02:26:00;;;;;;;8.40;4.60;;;;;;;;;;5030262;28;20087;-88
2021/09/17 02:28:25;;;;;;;8.85;5.32;;;;;;;;;;5030033;28;20376;-87
2021/09/17 02:30:50;;;;;;;7.40;4.95;;;;;;;;;;5044398;28;20025;-88
2021/09/17 02:33:15;;;;;;;10.82;4.78;;;;;;;;;;5032143;28;20021;-88
2021/09/17 02:35:41;;;;;;;11.80;5.75;;;;;;;;;;5044542;28;20411;-88
2021/09/17 02:38:06;;;;;;;8.48;4.65;;;;;;;;;;5035928;28;20025;-88
2021/09/17 02:40:31;;;;;;;11.80;5.85;;;;;;;;;;5038717;28;20033;-88
2021/09/17 02:42:57;;;;;;;11.25;4.78;;;;;;;;;;5030673;28;20005;-88
2021/09/17 02:45:22;;;;;;;12.63;5.60;;;;;;;;;;5031732;28;20381;-88
2021/09/17 02:47:48;;;;;;;9.32;5.28;;;;;;;;;;5031807;28;20032;-88
2021/09/17 02:50:13;;;;;;;9.30;5.53;;;;;;;;;;5031570;28;20064;-88
2021/09/17 02:52:39;;;;;;;8.57;5.38;;;;;;;;;;5031530;28;20470;-88
2021/09/17 02:55:04;;;;;;;10.45;6.28;;;;;;;;;;5031456;28;20021;-88
2021/09/17 02:57:30;;;;;;;16.25;6.13;;;;;;;;;;5031941;28;20040;-88
2021/09/17 02:59:55;;;;;;;10.23;6.07;;;;;;;;;;5031795;28;20029;-88
2021/09/17 03:02:20;;;;;;;14.05;6.18;;;;;;;;;;5031847;28;20113;-88
2021/09/17 03:04:46;;;;;;;10.70;6.35;;;;;;;;;;5031557;28;20026;-88
2021/09/17 03:07:11;;;;;;;10.95;6.68;;;;;;;;;;5031580;28;20112;-88
2021/09/17 03:09:36;;;;;;;9.95;6.18;;;;;;;;;;5031238;28;20171;-88
2021/09/17 03:12:01;;;;;;;7.47;4.80;;;;;;;;;;5031558;28;20040;-88
2021/09/17 03:14:27;;;;;;;9.65;5.40;;;;;;;;;;5038486;28;20025;-88
2021/09/17 03:16:52;;;;;;;12.82;6.00;;;;;;;;;;5043110;28;20037;-88
2021/09/17 03:19:18;;;;;;;10.32;5.82;;;;;;;;;;5034987;28;20033;-88
2021/09/17 03:21:43;;;;;;;10.45;5.10;;;;;;;;;;5036692;28;20036;-88
2021/09/17 03:24:09;;;;;;;11.10;4.60;;;;;;;;;;5050413;28;20128;-88
2021/09/17 03:26:34;;;;;;;13.80;5.38;;;;;;;;;;5044221;28;20115;-88
2021/09/17 03:29:00;;;;;;;7.90;4.70;;;;;;;;;;5040203;28;20039;-88
2021/09/17 03:31:25;;;;;;;12.65;4.90;;;;;;;;;;5035249;28;20064;-88
2021/09/17 03:33:51;;;;;;;11.73;4.90;;;;;;;;;;5035468;28;20032;-88
2021/09/17 03:36:16;;;;;;;9.23;5.20;;;;;;;;;;5035084;28;20175;-88
2021/09/17 03:38:41;;;;;;;7.93;5.15;;;;;;;;;;5035269;28;20469;-88
2021/09/17 03:41:07;;;;;;;12.88;6.28;;;;;;;;;;5037616;28;20036;-88
2021/09/17 03:43:32;;;;;;;12.77;5.00;;;;;;;;;;5046608;28;20030;-88
2021/09/17 03:45:58;;;;;;;25.45;5.60;;;;;;;;;;5036116;28;20026;-88
2021/09/17 03:48:23;;;;;;;8.90;5.00;;;;;;;;;;5041485;28;20032;-88
2021/09/17 03:50:48;;;;;;;7.78;4.95;;;;;;;;;;5042748;28;20029;-88
2021/09/17 03:53:13;;;;;;;12.93;6.10;;;;;;;;;;5034849;28;20029;-87
2021/09/17 03:55:39;;;;;;;12.55;6.30;;;;;;;;;;5034953;28;20071;-88
2021/09/17 03:58:05;;;;;;;10.10;6.53;;;;;;;;;;5034630;28;20022;-88
2021/09/17 04:00:30;;;;;;;10.35;6.15;;;;;;;;;;5036336;28;20480;-88
2021/09/17 04:02:56;;;;;;;12.02;6.25;;;;;;;;;;5035747;28;20028;-88
2021/09/17 04:05:21;;;;;;;13.10;6.70;;;;;;;;;;5034414;28;20017;-88
2021/09/17 04:07:46;;;;;;;17.10;7.50;;;;;;;;;;5034538;28;20022;-88
2021/09/17 04:10:13;;;;;;;15.75;6.97;;;;;;;;;;5035872;28;20139;-88
2021/09/17 04:12:39;;;;;;;11.02;6.47;;;;;;;;;;5021999;28;20028;-89
2021/09/17 04:15:04;;;;;;;11.75;6.28;;;;;;;;;;5034658;28;20025;-88
2021/09/17 04:17:30;;;;;;;11.68;6.00;;;;;;;;;;5034049;28;20021;-88
2021/09/17 04:19:55;;;;;;;14.00;6.68;;;;;;;;;;5033871;28;20036;-89
2021/09/17 04:22:20;;;;;;;15.00;7.32;;;;;;;;;;5038234;28;20063;-88
2021/09/17 04:24:46;;;;;;;15.63;8.48;;;;;;;;;;5035643;28;20021;-88
2021/09/17 04:27:11;;;;;;;14.40;7.88;;;;;;;;;;5033724;28;20032;-88
2021/09/17 04:29:36;;;;;;;18.02;8.05;;;;;;;;;;5033860;28;20040;-88
2021/09/17 04:32:02;;;;;;;18.73;7.22;;;;;;;;;;5034158;28;20373;-88
2021/09/17 04:34:27;;;;;;;13.98;8.60;;;;;;;;;;5033966;28;20029;-88
2021/09/17 04:36:53;;;;;;;13.40;7.88;;;;;;;;;;5034095;28;20473;-88
2021/09/17 04:39:18;;;;;;;19.98;8.90;;;;;;;;;;5035058;28;20021;-88
2021/09/17 04:41:44;;;;;;;13.27;7.82;;;;;;;;;;5033971;28;20060;-88
2021/09/17 04:44:09;;;;;;;18.23;9.38;;;;;;;;;;5033937;28;20021;-88
2021/09/17 04:46:34;;;;;;;13.98;8.38;;;;;;;;;;5033904;28;20041;-88
2021/09/17 04:48:59;;;;;;;15.82;7.85;;;;;;;;;;5034939;28;20034;-88
2021/09/17 04:51:25;;;;;;;12.73;7.15;;;;;;;;;;5036843;28;20021;-88
2021/09/17 04:53:50;;;;;;;13.68;7.28;;;;;;;;;;5044334;28;20483;-88
2021/09/17 04:56:16;;;;;;;13.10;7.18;;;;;;;;;;5033632;28;20388;-88
2021/09/17 04:58:41;;;;;;;11.55;6.72;;;;;;;;;;5041066;28;20021;-88
2021/09/17 05:01:06;;;;;;;13.82;7.82;;;;;;;;;;5040216;28;20439;-88
2021/09/17 05:03:31;;;;;;;16.20;8.05;;;;;;;;;;5034613;28;20028;-88
2021/09/17 05:05:57;;;;;;;14.85;7.53;;;;;;;;;;5046094;28;20025;-88
2021/09/17 05:08:22;;;;;;;13.48;7.43;;;;;;;;;;5034467;28;20084;-88
2021/09/17 05:10:47;;;;;;;13.48;8.07;;;;;;;;;;5033227;28;20018;-88
2021/09/17 05:13:12;;;;;;;13.73;7.38;;;;;;;;;;5033520;28;20072;-88
2021/09/17 05:15:38;;;;;;;13.50;7.90;;;;;;;;;;5033107;28;20578;-88
2021/09/17 05:18:03;;;;;;;15.65;8.15;;;;;;;;;;5033560;28;20009;-88
2021/09/17 05:20:28;;;;;;;17.88;9.93;;;;;;;;;;5033193;28;20076;-88
2021/09/17 05:22:54;;;;;;;21.42;9.23;;;;;;;;;;5033567;28;20075;-88
2021/09/17 05:25:19;;;;;;;18.30;10.45;;;;;;;;;;5033052;28;20026;-88
2021/09/17 05:27:44;;;;;;;21.05;10.07;;;;;;;;;;5033227;28;20045;-88
2021/09/17 05:30:10;;;;;;;18.63;10.20;;;;;;;;;;5034055;28;20029;-88
2021/09/17 05:32:35;;;;;;;23.65;12.48;;;;;;;;;;5033740;28;20028;-88
2021/09/17 05:35:01;;;;;;;23.60;11.15;;;;;;;;;;5032873;28;20114;-88
2021/09/17 05:37:26;;;;;;;19.38;11.00;;;;;;;;;;5032604;28;20021;-87
2021/09/17 05:39:51;;;;;;;18.92;11.27;;;;;;;;;;5032614;28;20022;-88
2021/09/17 05:42:17;;;;;;;23.08;12.15;;;;;;;;;;5033006;28;20117;-88
2021/09/17 05:44:42;;;;;;;24.38;12.35;;;;;;;;;;5032769;28;20028;-88
2021/09/17 05:47:07;;;;;;;26.40;14.10;;;;;;;;;;5032821;28;20072;-88
2021/09/17 05:49:33;;;;;;;20.70;11.07;;;;;;;;;;5032264;28;20030;-88
2021/09/17 05:51:58;;;;;;;22.63;11.70;;;;;;;;;;5032733;28;20041;-88
2021/09/17 05:54:23;;;;;;;24.58;12.75;;;;;;;;;;5032932;28;20071;-88
2021/09/17 05:56:49;;;;;;;28.10;12.05;;;;;;;;;;5032325;28;20025;-88
2021/09/17 05:59:14;;;;;;;18.48;10.20;;;;;;;;;;5032558;28;20112;-88
2021/09/17 06:01:39;;;;;;;21.65;12.18;;;;;;;;;;5032560;28;20022;-89
2021/09/17 06:04:04;;;;;;;25.38;13.68;;;;;;;;;;5033969;28;20049;-88
2021/09/17 06:06:30;;;;;;;32.50;15.43;;;;;;;;;;5036534;28;20082;-89
2021/09/17 06:08:57;;;;;;;31.23;15.90;;;;;;;;;;5033389;28;20025;-89
2021/09/17 06:11:22;;;;;;;37.17;16.77;;;;;;;;;;5032028;28;20029;-89
2021/09/17 06:13:47;;;;;;;31.65;16.67;;;;;;;;;;5032166;28;20025;-89
2021/09/17 06:16:13;;;;;;;36.60;17.15;;;;;;;;;;5032481;28;20018;-89
2021/09/17 06:18:38;;;;;;;35.17;18.10;;;;;;;;;;5032087;28;20538;-89
2021/09/17 06:21:03;;;;;;;32.35;15.77;;;;;;;;;;5033451;28;20101;-89
2021/09/17 06:23:29;;;;;;;29.83;15.35;;;;;;;;;;5023859;28;20033;-89
2021/09/17 06:25:56;;;;;;;25.58;14.02;;;;;;;;;;5033572;28;20021;-89
2021/09/17 06:28:22;;;;;;;24.52;13.65;;;;;;;;;;5033594;28;20091;-89
2021/09/17 06:30:47;;;;;;;24.88;13.80;;;;;;;;;;5032897;28;20096;-89
2021/09/17 06:33:13;;;;;;;31.17;15.73;;;;;;;;;;5037280;28;20039;-89
2021/09/17 06:35:38;;;;;;;29.45;16.35;;;;;;;;;;5031877;28;20021;-89
2021/09/17 06:38:03;;;;;;;33.28;17.30;;;;;;;;;;5032976;28;20381;-89
2021/09/17 06:40:28;;;;;;;37.25;19.45;;;;;;;;;;5031559;28;20029;-89
2021/09/17 06:42:55;;;;;;;38.22;19.58;;;;;;;;;;5030604;28;20026;-89
2021/09/17 06:45:20;;;;;;;41.17;21.00;;;;;;;;;;5031853;28;20136;-89
2021/09/17 06:47:47;;;;;;;38.83;19.65;;;;;;;;;;5033248;28;20112;-89
2021/09/17 06:50:13;;;;;;;36.90;18.90;;;;;;;;;;5031546;28;20116;-89
2021/09/17 06:52:40;;;;;;;42.65;19.63;;;;;;;;;;5032024;28;20527;-89
2021/09/17 06:55:06;;;;;;;40.90;20.60;;;;;;;;;;5045705;28;20465;-88
2021/09/17 06:57:41;;;;;;;40.67;19.63;;;;;;;;;;5031874;28;20032;-89
2021/09/17 07:00:06;;;;;;;40.50;20.35;;;;;;;;;;5031813;28;20021;-88
2021/09/17 07:02:32;;;;;;;39.95;20.40;;;;;;;;;;5030101;28;20047;-88
2021/09/17 07:04:57;;;;;;;48.35;23.60;;;;;;;;;;5031583;28;20109;-88
2021/09/17 07:07:22;;;;;;;52.13;24.70;;;;;;;;;;5036378;28;20017;-89
2021/09/17 07:09:47;;;;;;;43.78;21.50;;;;;;;;;;5033815;28;20032;-89
2021/09/17 07:12:13;;;;;;;49.33;22.90;;;;;;;;;;5031395;28;20053;-89
2021/09/17 07:14:38;;;;;;;56.95;25.83;;;;;;;;;;5039932;28;20048;-89
2021/09/17 07:17:03;;;;;;;48.42;24.13;;;;;;;;;;5037201;28;20473;-88
2021/09/17 07:19:28;;;;;;;53.45;25.35;;;;;;;;;;5031349;28;20021;-89
2021/09/17 07:21:54;;;;;;;47.92;19.60;;;;;;;;;;5031400;28;20053;-89
2021/09/17 07:24:19;;;;;;;46.50;22.15;;;;;;;;;;5031325;28;20025;-89
2021/09/17 07:26:44;;;;;;;38.47;17.60;;;;;;;;;;5033117;28;20060;-89
2021/09/17 07:29:09;;;;;;;46.67;19.63;;;;;;;;;;5031661;28;20045;-89
2021/09/17 07:31:35;;;;;;;34.72;17.23;;;;;;;;;;5031006;28;20021;-90
2021/09/17 07:34:00;;;;;;;40.92;18.85;;;;;;;;;;5031373;28;20140;-89
2021/09/17 07:36:25;;;;;;;50.60;24.60;;;;;;;;;;5032501;28;20064;-89
2021/09/17 07:38:50;;;;;;;58.35;24.35;;;;;;;;;;5031673;28;20025;-89
2021/09/17 07:41:16;;;;;;;48.65;21.27;;;;;;;;;;5031593;28;20036;-89
2021/09/17 07:43:41;;;;;;;55.72;23.65;;;;;;;;;;5031039;28;20369;-89
2021/09/17 07:46:06;;;;;;;49.63;21.83;;;;;;;;;;5030433;28;20053;-89
2021/09/17 07:48:33;;;;;;;44.05;18.40;;;;;;;;;;5030428;28;20029;-89
2021/09/17 07:50:58;;;;;;;47.08;21.50;;;;;;;;;;5031177;28;20029;-89
2021/09/17 07:53:23;;;;;;;70.97;26.02;;;;;;;;;;5031123;28;20160;-89
2021/09/17 07:55:48;;;;;;;53.13;21.92;;;;;;;;;;5030921;28;20021;-89
2021/09/17 07:58:14;;;;;;;47.38;19.67;;;;;;;;;;5034176;28;20074;-89
2021/09/17 08:00:39;;;;;;;48.53;22.27;;;;;;;;;;5039397;28;20021;-89
2021/09/17 08:03:04;;;;;;;57.03;24.73;;;;;;;;;;5043973;28;20029;-90
2021/09/17 08:05:30;;;;;;;61.15;25.48;;;;;;;;;;5034169;28;20013;-89
2021/09/17 08:07:55;;;;;;;51.42;20.83;;;;;;;;;;5033833;28;20028;-89
2021/09/17 08:10:21;;;;;;;52.78;22.15;;;;;;;;;;5035589;28;20459;-89
2021/09/17 08:12:46;;;;;;;55.92;22.25;;;;;;;;;;5034257;28;20477;-89
2021/09/17 08:15:11;;;;;;;60.22;26.52;;;;;;;;;;5034221;28;20017;-89
2021/09/17 08:17:37;;;;;;;69.32;25.77;;;;;;;;;;5034192;28;20049;-89
2021/09/17 08:20:03;;;;;;;60.47;21.45;;;;;;;;;;5034421;28;20029;-89
2021/09/17 08:22:29;;;;;;;63.20;23.88;;;;;;;;;;5034271;28;20014;-89
2021/09/17 08:24:54;;;;;;;74.43;27.52;;;;;;;;;;5034116;28;20026;-88
2021/09/17 08:27:19;;;;;;;58.45;25.10;;;;;;;;;;5048279;28;20507;-89
2021/09/17 08:29:44;;;;;;;64.95;27.23;;;;;;;;;;5035323;28;20028;-89
2021/09/17 08:32:10;;;;;;;66.15;27.65;;;;;;;;;;5034200;28;20386;-89
2021/09/17 08:34:35;;;;;;;70.63;26.00;;;;;;;;;;5040540;28;20026;-89
2021/09/17 08:37:03;;;;;;;78.22;29.20;;;;;;;;;;5035062;28;20036;-88
2021/09/17 08:39:28;;;;;;;73.00;28.10;;;;;;;;;;5033806;28;20538;-88
2021/09/17 08:41:54;;;;;;;75.25;29.40;;;;;;;;;;5038936;28;20021;-89
2021/09/17 08:44:19;;;;;;;77.38;28.83;;;;;;;;;;5033445;28;20489;-88
2021/09/17 08:46:44;;;;;;;75.03;29.90;;;;;;;;;;5033944;28;20068;-89
2021/09/17 08:49:10;;;;;;;72.20;29.25;;;;;;;;;;5033467;28;20108;-88
2021/09/17 08:51:35;;;;;;;58.40;24.48;;;;;;;;;;5035044;28;20009;-88
2021/09/17 08:54:03;;;;;;;69.95;27.88;;;;;;;;;;5040011;28;20021;-89
2021/09/17 08:56:28;;;;;;;64.78;25.08;;;;;;;;;;5034453;28;20071;-89
2021/09/17 08:58:53;;;;;;;63.67;24.60;;;;;;;;;;5033693;28;20384;-88
2021/09/17 09:01:28;;;;;;;62.60;24.02;;;;;;;;;;5032858;28;20033;-89
2021/09/17 09:03:54;;;;;;;60.10;24.33;;;;;;;;;;5033785;28;20479;-89
2021/09/17 09:06:20;;;;;;;70.65;23.98;;;;;;;;;;5033729;28;20026;-89
2021/09/17 09:08:45;;;;;;;46.83;16.35;;;;;;;;;;5032538;28;20028;-89
2021/09/17 09:11:15;;;;;;;56.28;21.48;;;;;;;;;;5033401;28;20430;-89
2021/09/17 09:13:55;;;;;;;64.13;23.92;;;;;;;;;;5032555;28;20021;-88
2021/09/17 09:16:21;;;;;;;56.08;21.95;;;;;;;;;;5042112;28;20472;-89
2021/09/17 09:18:46;;;;;;;54.97;21.80;;;;;;;;;;5032542;28;20036;-88
2021/09/17 09:21:22;;;;;;;60.33;21.92;;;;;;;;;;5034572;28;20457;-88
2021/09/17 09:23:47;;;;;;;53.10;20.63;;;;;;;;;;5033287;28;20029;-89
2021/09/17 09:26:12;;;;;;;48.70;19.88;;;;;;;;;;5033925;28;20026;-89
2021/09/17 09:28:40;;;;;;;43.97;21.15;;;;;;;;;;5033019;28;20040;-88
2021/09/17 09:31:05;;;;;;;43.53;18.17;;;;;;;;;;5030857;28;20104;-88
2021/09/17 09:33:31;;;;;;;38.90;17.23;;;;;;;;;;5031325;28;20093;-88
2021/09/17 09:35:58;;;;;;;37.80;15.02;;;;;;;;;;5031087;28;20481;-88
2021/09/17 09:38:33;;;;;;;37.90;15.52;;;;;;;;;;5031835;28;20762;-89
2021/09/17 09:41:00;;;;;;;38.03;16.00;;;;;;;;;;5032714;28;20038;-88
2021/09/17 09:43:30;;;;;;;35.63;14.95;;;;;;;;;;5039585;28;20017;-88
2021/09/17 09:45:57;;;;;;;35.47;15.55;;;;;;;;;;5046729;28;20112;-87
2021/09/17 09:48:22;;;;;;;28.67;12.77;;;;;;;;;;5032642;28;20477;-88
2021/09/17 09:50:48;;;;;;;36.97;14.18;;;;;;;;;;5033249;28;20029;-88
2021/09/17 09:53:16;;;;;;;32.58;13.60;;;;;;;;;;5032527;28;20466;-88
2021/09/17 09:55:41;;;;;;;30.30;12.40;;;;;;;;;;5032753;28;20049;-88
2021/09/17 09:58:07;;;;;;;30.95;15.07;;;;;;;;;;5032398;28;20037;-88
2021/09/17 10:00:32;;;;;;;29.50;13.80;;;;;;;;;;5031957;28;20021;-88
2021/09/17 10:02:57;;;;;;;32.25;14.98;;;;;;;;;;5032080;28;20107;-87
2021/09/17 10:05:26;;;;;;;30.13;13.73;;;;;;;;;;5032273;28;20052;-88
2021/09/17 10:07:51;;;;;;;27.42;12.02;;;;;;;;;;5032801;28;20501;-88
2021/09/17 10:10:17;;;;;;;22.70;11.70;;;;;;;;;;5032161;28;20052;-88
2021/09/17 10:12:43;;;;;;;19.92;7.38;;;;;;;;;;5033606;28;20052;-89
2021/09/17 10:15:09;;;;;;;25.38;9.98;;;;;;;;;;5042210;28;20479;-87
2021/09/17 10:17:38;;;;;;;21.70;9.65;;;;;;;;;;5032906;28;20106;-88
2021/09/17 10:20:05;;;;;;;22.65;10.75;;;;;;;;;;5031899;28;20535;-89
2021/09/17 10:22:30;;;;;;;18.20;8.95;;;;;;;;;;5032024;28;20021;-88
2021/09/17 10:25:12;;;;;;;20.13;9.73;;;;;;;;;;5031256;28;20168;-88
2021/09/17 10:27:39;;;;;;;22.23;9.35;;;;;;;;;;5032143;28;20080;-89
2021/09/17 10:30:07;;;;;;;19.38;8.57;;;;;;;;;;5033161;28;20025;-88
2021/09/17 10:32:36;;;;;;;24.20;11.68;;;;;;;;;;5032986;28;20022;-89
2021/09/17 10:35:04;;;;;;;25.17;10.82;;;;;;;;;;5031691;28;20044;-89
2021/09/17 10:37:48;;;;;;;20.95;9.95;;;;;;;;;;5031779;28;20022;-89
2021/09/17 10:40:14;;;;;;;28.52;10.65;;;;;;;;;;5031746;28;20040;-89
2021/09/17 10:42:59;;;;;;;23.70;9.52;;;;;;;;;;5031964;28;20393;-88
2021/09/17 10:45:24;;;;;;;21.88;9.90;;;;;;;;;;5031573;28;20540;-88
2021/09/17 10:47:54;;;;;;;19.83;9.88;;;;;;;;;;5031853;28;20106;-88
2021/09/17 10:50:20;;;;;;;12.05;4.63;;;;;;;;;;5031762;28;20040;-88
2021/09/17 10:52:47;;;;;;;18.33;8.43;;;;;;;;;;5031337;28;20029;-87
2021/09/17 10:55:39;;;;;;;20.13;9.10;;;;;;;;;;5031672;28;20044;-88
2021/09/17 10:58:26;;;;;;;19.03;7.47;;;;;;;;;;5026366;28;20116;-88
2021/09/17 11:00:55;;;;;;;25.10;9.35;;;;;;;;;;5031715;28;20021;-89
2021/09/17 11:03:36;;;;;;;11.32;5.90;;;;;;;;;;5031582;28;20469;-89
2021/09/17 11:06:20;;;;;;;13.38;5.65;;;;;;;;;;5031761;28;20014;-88
2021/09/17 11:08:50;;;;;;;16.65;6.75;;;;;;;;;;5031084;28;20056;-88
2021/09/17 11:11:34;;;;;;;19.55;9.40;;;;;;;;;;5032948;28;20034;-89
2021/09/17 11:14:05;;;;;;;21.23;9.38;;;;;;;;;;5031416;28;20389;-88
2021/09/17 11:16:30;;;;;;;24.30;9.35;;;;;;;;;;5031489;28;20056;-88
2021/09/17 11:18:57;;;;;;;15.05;7.25;;;;;;;;;;5030710;28;20076;-88
2021/09/17 11:21:22;;;;;;;18.52;8.13;;;;;;;;;;5031427;28;20018;-88
2021/09/17 11:23:52;;;;;;;18.05;7.53;;;;;;;;;;5045469;28;20044;-88
2021/09/17 11:26:30;;;;;;;20.98;7.03;;;;;;;;;;5019311;28;20358;-88
2021/09/17 11:29:00;;;;;;;18.70;6.85;;;;;;;;;;5031501;28;20047;-87
2021/09/17 11:31:28;;;;;;;16.40;7.70;;;;;;;;;;5031508;28;20022;-88
2021/09/17 11:33:54;;;;;;;19.58;8.18;;;;;;;;;;5032528;28;20033;-89
2021/09/17 11:36:32;;;;;;;15.25;6.88;;;;;;;;;;5032275;28;20022;-89
2021/09/17 11:39:09;;;;;;;17.52;7.25;;;;;;;;;;5047943;28;20033;-88
2021/09/17 11:41:37;;;;;;;13.13;6.40;;;;;;;;;;5027577;28;20029;-89
2021/09/17 11:44:03;;;;;;;18.88;7.40;;;;;;;;;;5035323;28;20040;-89
2021/09/17 11:46:28;;;;;;;17.70;7.65;;;;;;;;;;5035016;28;20022;-89
2021/09/17 11:48:53;;;;;;;17.83;7.93;;;;;;;;;;5034956;28;20065;-89
2021/09/17 11:51:21;;;;;;;16.85;7.40;;;;;;;;;;5034805;28;20431;-89
2021/09/17 11:53:46;;;;;;;12.40;5.90;;;;;;;;;;5034937;28;20033;-89
2021/09/17 11:56:12;;;;;;;11.70;5.47;;;;;;;;;;5034785;28;20023;-89
2021/09/17 11:58:43;;;;;;;17.25;5.90;;;;;;;;;;5036265;28;20713;-89
2021/09/17 12:01:18;;;;;;;10.55;5.50;;;;;;;;;;5034877;28;20026;-89
2021/09/17 12:03:44;;;;;;;11.77;5.05;;;;;;;;;;5034508;28;20033;-88
2021/09/17 12:06:10;;;;;;;15.00;5.05;;;;;;;;;;5034909;28;20055;-88
2021/09/17 12:08:36;;;;;;;12.27;5.95;;;;;;;;;;5034419;28;20029;-88
2021/09/17 12:11:01;;;;;;;14.10;5.90;;;;;;;;;;5034759;28;20017;-89
2021/09/17 12:13:27;;;;;;;10.05;5.15;;;;;;;;;;5034913;28;20020;-89
2021/09/17 12:15:56;;;;;;;12.57;5.10;;;;;;;;;;5034221;28;20014;-89
2021/09/17 12:18:22;;;;;;;11.35;4.88;;;;;;;;;;5034541;28;20017;-89
2021/09/17 12:20:49;;;;;;;9.48;4.38;;;;;;;;;;5034479;28;20373;-89
2021/09/17 12:23:18;;;;;;;10.30;5.15;;;;;;;;;;5035131;28;20069;-89
2021/09/17 12:25:44;;;;;;;13.35;5.13;;;;;;;;;;5033894;28;20017;-89
2021/09/17 12:28:13;;;;;;;8.23;4.75;;;;;;;;;;5032601;28;20025;-89
2021/09/17 12:30:39;;;;;;;14.38;5.10;;;;;;;;;;5033872;28;20053;-89
2021/09/17 12:33:04;;;;;;;10.50;4.85;;;;;;;;;;5032727;28;20021;-89
2021/09/17 12:35:29;;;;;;;10.52;3.95;;;;;;;;;;5033741;28;20026;-88
2021/09/17 12:37:55;;;;;;;11.65;5.05;;;;;;;;;;5032064;28;20056;-88
2021/09/17 12:40:22;;;;;;;7.30;3.45;;;;;;;;;;5033962;28;20071;-89
2021/09/17 12:43:07;;;;;;;9.23;3.78;;;;;;;;;;5032084;28;20021;-89
2021/09/17 12:45:33;;;;;;;11.30;3.55;;;;;;;;;;5043171;28;20538;-89
2021/09/17 12:48:00;;;;;;;9.35;4.45;;;;;;;;;;5034065;28;20025;-89
2021/09/17 12:50:30;;;;;;;10.52;4.72;;;;;;;;;;5040958;28;20120;-88
2021/09/17 12:52:56;;;;;;;8.35;3.97;;;;;;;;;;5038131;28;20036;-88
2021/09/17 12:55:25;;;;;;;7.82;3.67;;;;;;;;;;5032424;28;20100;-88
2021/09/17 12:57:55;;;;;;;7.53;3.72;;;;;;;;;;5031518;28;20037;-88
2021/09/17 13:00:20;;;;;;;6.65;3.10;;;;;;;;;;5032398;28;20422;-89
2021/09/17 13:02:45;;;;;;;7.07;3.63;;;;;;;;;;5032232;28;20424;-88
2021/09/17 13:05:11;;;;;;;11.75;3.10;;;;;;;;;;5031371;28;20021;-88
2021/09/17 13:07:36;;;;;;;7.07;3.30;;;;;;;;;;5031770;28;20021;-89
2021/09/17 13:10:02;;;;;;;9.88;3.95;;;;;;;;;;5031942;28;20021;-88
2021/09/17 13:12:28;;;;;;;10.48;5.00;;;;;;;;;;5032950;28;20009;-89
2021/09/17 13:14:53;;;;;;;10.52;4.93;;;;;;;;;;5031481;28;20404;-89
2021/09/17 13:17:19;;;;;;;9.90;4.03;;;;;;;;;;5031571;28;20374;-88
2021/09/17 13:19:44;;;;;;;8.07;3.72;;;;;;;;;;5039915;28;20021;-89
2021/09/17 13:22:09;;;;;;;6.82;3.83;;;;;;;;;;5036705;28;20040;-88
2021/09/17 13:24:35;;;;;;;9.73;3.58;;;;;;;;;;5031496;28;20018;-89
2021/09/17 13:27:00;;;;;;;10.43;3.15;;;;;;;;;;5032495;28;20026;-88
2021/09/17 13:29:25;;;;;;;9.40;4.88;;;;;;;;;;5032759;28;20026;-88
2021/09/17 13:31:50;;;;;;;9.07;3.90;;;;;;;;;;5033201;28;20025;-89
2021/09/17 13:34:16;;;;;;;11.52;3.75;;;;;;;;;;5048229;28;20021;-88
2021/09/17 13:36:41;;;;;;;6.40;3.47;;;;;;;;;;5032703;28;20049;-88
2021/09/17 13:39:06;;;;;;;8.82;3.50;;;;;;;;;;5034202;28;20048;-88
2021/09/17 13:41:32;;;;;;;9.88;4.00;;;;;;;;;;5033801;28;20053;-88
2021/09/17 13:43:57;;;;;;;7.03;3.90;;;;;;;;;;5032451;28;20036;-88
2021/09/17 13:46:22;;;;;;;7.75;4.22;;;;;;;;;;5032522;28;20472;-88
2021/09/17 13:48:48;;;;;;;6.40;3.75;;;;;;;;;;5032473;28;20025;-88
2021/09/17 13:51:13;;;;;;;5.95;3.53;;;;;;;;;;5033649;28;20053;-88
2021/09/17 13:53:38;;;;;;;9.02;4.22;;;;;;;;;;5032818;28;20033;-89
2021/09/17 13:56:04;;;;;;;11.30;4.60;;;;;;;;;;5032810;28;20060;-88
2021/09/17 13:58:29;;;;;;;8.15;3.42;;;;;;;;;;5032213;28;20026;-88
2021/09/17 14:00:54;;;;;;;9.52;3.92;;;;;;;;;;5033259;28;20469;-88
2021/09/17 14:03:20;;;;;;;7.93;3.70;;;;;;;;;;5032457;28;20021;-89
2021/09/17 14:05:45;;;;;;;8.77;3.47;;;;;;;;;;5032548;28;20381;-89
2021/09/17 14:08:10;;;;;;;6.35;3.78;;;;;;;;;;5033846;28;20017;-89
2021/09/17 14:10:35;;;;;;;8.45;3.30;;;;;;;;;;5032099;28;20091;-89
2021/09/17 14:13:01;;;;;;;6.38;3.47;;;;;;;;;;5032460;28;20021;-88
2021/09/17 14:15:26;;;;;;;6.55;3.20;;;;;;;;;;5032066;28;20047;-88
2021/09/17 14:17:51;;;;;;;8.05;3.80;;;;;;;;;;5033289;28;20021;-89
2021/09/17 14:20:17;;;;;;;5.43;3.33;;;;;;;;;;5031852;28;20021;-89
2021/09/17 14:22:42;;;;;;;7.38;3.22;;;;;;;;;;5032072;28;20014;-88